sensor_id;sensor_type;location;lat;lon;timestamp;temperature;humidity
18073;DHT22;9161;47.348;9.648;2023-11-21T00:01:37;7.50;99.90
18073;DHT22;9161;47.348;9.648;2023-11-21T00:06:40;7.50;99.90
18073;DHT22;9161;47.348;9.648;2023-11-21T00:11:43;7.60;99.90
18073;DHT22;9161;47.348;9.648;2023-11-21T00:16:45;7.60;99.90
18073;DHT22;9161;47.348;9.648;2023-11-21T00:21:47;7.70;99.90
18073;DHT22;9161;47.348;9.648;2023-11-21T00:26:51;7.70;99.90
18073;DHT22;9161;47.348;9.648;2023-11-21T00:31:53;7.60;99.90
18073;DHT22;9161;47.348;9.648;2023-11-21T00:36:55;7.50;99.90
18073;DHT22;9161;47.348;9.648;2023-11-21T00:41:58;7.60;99.90
18073;DHT22;9161;47.348;9.648;2023-11-21T00:47:01;7.50;99.90
18073;DHT22;9161;47.348;9.648;2023-11-21T00:52:04;7.40;99.90
18073;DHT22;9161;47.348;9.648;2023-11-21T00:57:07;7.40;99.90
18073;DHT22;9161;47.348;9.648;2023-11-21T01:02:09;7.30;99.90
18073;DHT22;9161;47.348;9.648;2023-11-21T01:07:12;7.20;99.90
18073;DHT22;9161;47.348;9.648;2023-11-21T01:12:15;7.00;99.90
18073;DHT22;9161;47.348;9.648;2023-11-21T01:17:18;6.90;99.90
18073;DHT22;9161;47.348;9.648;2023-11-21T01:22:20;6.90;99.90
18073;DHT22;9161;47.348;9.648;2023-11-21T01:27:28;6.90;99.90
18073;DHT22;9161;47.348;9.648;2023-11-21T01:32:30;6.90;99.90
18073;DHT22;9161;47.348;9.648;2023-11-21T01:37:32;7.00;99.90
18073;DHT22;9161;47.348;9.648;2023-11-21T01:42:36;7.00;99.90
18073;DHT22;9161;47.348;9.648;2023-11-21T01:47:38;7.00;99.90
18073;DHT22;9161;47.348;9.648;2023-11-21T01:52:42;7.10;99.90
18073;DHT22;9161;47.348;9.648;2023-11-21T01:57:46;7.00;99.90
18073;DHT22;9161;47.348;9.648;2023-11-21T02:02:48;7.00;99.90
18073;DHT22;9161;47.348;9.648;2023-11-21T02:07:51;7.20;99.90
18073;DHT22;9161;47.348;9.648;2023-11-21T02:12:54;7.30;99.90
18073;DHT22;9161;47.348;9.648;2023-11-21T02:17:57;7.20;99.90
18073;DHT22;9161;47.348;9.648;2023-11-21T02:23:01;7.20;99.90
18073;DHT22;9161;47.348;9.648;2023-11-21T02:28:03;7.20;99.90
18073;DHT22;9161;47.348;9.648;2023-11-21T02:33:07;7.30;99.90
18073;DHT22;9161;47.348;9.648;2023-11-21T02:38:10;7.40;99.90
18073;DHT22;9161;47.348;9.648;2023-11-21T02:43:12;7.40;99.90
18073;DHT22;9161;47.348;9.648;2023-11-21T02:48:14;7.30;99.90
18073;DHT22;9161;47.348;9.648;2023-11-21T02:53:17;7.30;99.90
18073;DHT22;9161;47.348;9.648;2023-11-21T02:58:20;7.30;99.90
18073;DHT22;9161;47.348;9.648;2023-11-21T03:03:21;7.30;99.90
18073;DHT22;9161;47.348;9.648;2023-11-21T03:08:26;7.30;99.90
18073;DHT22;9161;47.348;9.648;2023-11-21T03:13:28;7.30;99.90
18073;DHT22;9161;47.348;9.648;2023-11-21T03:18:31;7.30;99.90
18073;DHT22;9161;47.348;9.648;2023-11-21T03:23:35;7.20;99.90
18073;DHT22;9161;47.348;9.648;2023-11-21T03:28:37;7.20;99.90
18073;DHT22;9161;47.348;9.648;2023-11-21T03:33:39;7.20;99.90
18073;DHT22;9161;47.348;9.648;2023-11-21T03:38:42;7.10;99.90
18073;DHT22;9161;47.348;9.648;2023-11-21T03:43:44;7.20;99.90
18073;DHT22;9161;47.348;9.648;2023-11-21T03:48:46;7.30;99.90
18073;DHT22;9161;47.348;9.648;2023-11-21T03:53:50;7.20;99.90
18073;DHT22;9161;47.348;9.648;2023-11-21T03:58:52;7.20;99.90
18073;DHT22;9161;47.348;9.648;2023-11-21T04:03:54;7.20;99.90
18073;DHT22;9161;47.348;9.648;2023-11-21T04:08:59;7.20;99.90
18073;DHT22;9161;47.348;9.648;2023-11-21T04:14:01;7.10;99.90
18073;DHT22;9161;47.348;9.648;2023-11-21T04:19:03;7.10;99.90
18073;DHT22;9161;47.348;9.648;2023-11-21T04:24:07;7.10;99.90
18073;DHT22;9161;47.348;9.648;2023-11-21T04:29:09;7.10;99.90
18073;DHT22;9161;47.348;9.648;2023-11-21T04:34:11;7.20;99.90
18073;DHT22;9161;47.348;9.648;2023-11-21T04:39:15;7.30;99.90
18073;DHT22;9161;47.348;9.648;2023-11-21T04:44:17;7.20;99.90
18073;DHT22;9161;47.348;9.648;2023-11-21T04:49:19;7.20;99.90
18073;DHT22;9161;47.348;9.648;2023-11-21T04:54:22;7.10;99.90
18073;DHT22;9161;47.348;9.648;2023-11-21T04:59:27;7.20;99.90
18073;DHT22;9161;47.348;9.648;2023-11-21T05:04:29;7.20;99.90
18073;DHT22;9161;47.348;9.648;2023-11-21T05:09:33;7.20;99.90
18073;DHT22;9161;47.348;9.648;2023-11-21T05:14:35;7.30;99.90
18073;DHT22;9161;47.348;9.648;2023-11-21T05:19:37;7.40;99.90
18073;DHT22;9161;47.348;9.648;2023-11-21T05:24:42;7.40;99.90
18073;DHT22;9161;47.348;9.648;2023-11-21T05:29:45;7.40;99.90
18073;DHT22;9161;47.348;9.648;2023-11-21T05:34:47;7.40;99.90
18073;DHT22;9161;47.348;9.648;2023-11-21T05:39:50;7.40;99.90
18073;DHT22;9161;47.348;9.648;2023-11-21T05:44:52;7.30;99.90
18073;DHT22;9161;47.348;9.648;2023-11-21T05:49:55;7.30;99.90
18073;DHT22;9161;47.348;9.648;2023-11-21T05:54:58;7.20;99.90
18073;DHT22;9161;47.348;9.648;2023-11-21T06:00:00;7.20;99.90
18073;DHT22;9161;47.348;9.648;2023-11-21T06:05:10;7.20;99.90
18073;DHT22;9161;47.348;9.648;2023-11-21T06:10:14;7.10;99.90
18073;DHT22;9161;47.348;9.648;2023-11-21T06:15:19;7.10;99.90
18073;DHT22;9161;47.348;9.648;2023-11-21T06:20:23;7.10;99.90
18073;DHT22;9161;47.348;9.648;2023-11-21T06:25:26;7.10;99.90
18073;DHT22;9161;47.348;9.648;2023-11-21T06:30:29;7.10;99.90
18073;DHT22;9161;47.348;9.648;2023-11-21T06:35:31;7.10;99.90
18073;DHT22;9161;47.348;9.648;2023-11-21T06:40:36;7.10;99.90
18073;DHT22;9161;47.348;9.648;2023-11-21T06:45:39;7.10;99.90
18073;DHT22;9161;47.348;9.648;2023-11-21T06:50:41;6.90;99.90
18073;DHT22;9161;47.348;9.648;2023-11-21T06:55:44;7.00;99.90
18073;DHT22;9161;47.348;9.648;2023-11-21T07:00:46;7.10;99.90
18073;DHT22;9161;47.348;9.648;2023-11-21T07:05:53;7.10;99.90
18073;DHT22;9161;47.348;9.648;2023-11-21T07:10:56;7.00;99.90
18073;DHT22;9161;47.348;9.648;2023-11-21T07:15:59;7.00;99.90
18073;DHT22;9161;47.348;9.648;2023-11-21T07:21:01;7.10;99.90
18073;DHT22;9161;47.348;9.648;2023-11-21T07:26:05;7.10;99.90
18073;DHT22;9161;47.348;9.648;2023-11-21T07:31:09;7.30;99.90
18073;DHT22;9161;47.348;9.648;2023-11-21T07:36:11;7.20;99.90
18073;DHT22;9161;47.348;9.648;2023-11-21T07:41:15;7.20;99.90
18073;DHT22;9161;47.348;9.648;2023-11-21T07:46:30;7.20;99.90
18073;DHT22;9161;47.348;9.648;2023-11-21T07:51:33;7.30;99.90
18073;DHT22;9161;47.348;9.648;2023-11-21T07:56:36;7.40;99.90
18073;DHT22;9161;47.348;9.648;2023-11-21T08:01:39;7.40;99.90
18073;DHT22;9161;47.348;9.648;2023-11-21T08:06:43;7.40;99.90
18073;DHT22;9161;47.348;9.648;2023-11-21T08:11:47;7.50;99.90
18073;DHT22;9161;47.348;9.648;2023-11-21T08:16:49;7.60;99.90
18073;DHT22;9161;47.348;9.648;2023-11-21T08:21:52;7.90;99.90
18073;DHT22;9161;47.348;9.648;2023-11-21T08:26:57;7.90;99.90
18073;DHT22;9161;47.348;9.648;2023-11-21T08:32:00;8.10;99.90
18073;DHT22;9161;47.348;9.648;2023-11-21T08:37:02;8.30;99.90
18073;DHT22;9161;47.348;9.648;2023-11-21T08:42:06;8.30;99.90
18073;DHT22;9161;47.348;9.648;2023-11-21T08:47:09;8.50;99.90
18073;DHT22;9161;47.348;9.648;2023-11-21T08:52:11;8.60;99.90
18073;DHT22;9161;47.348;9.648;2023-11-21T08:57:15;8.70;99.90
18073;DHT22;9161;47.348;9.648;2023-11-21T09:02:19;8.70;99.90
18073;DHT22;9161;47.348;9.648;2023-11-21T09:07:22;8.80;99.90
18073;DHT22;9161;47.348;9.648;2023-11-21T09:12:26;9.10;99.90
18073;DHT22;9161;47.348;9.648;2023-11-21T09:17:28;9.20;99.90
18073;DHT22;9161;47.348;9.648;2023-11-21T09:22:31;9.20;99.90
18073;DHT22;9161;47.348;9.648;2023-11-21T09:27:34;9.10;99.90
18073;DHT22;9161;47.348;9.648;2023-11-21T09:32:38;9.10;99.90
18073;DHT22;9161;47.348;9.648;2023-11-21T09:37:42;9.30;99.90
18073;DHT22;9161;47.348;9.648;2023-11-21T09:42:53;9.50;99.90
18073;DHT22;9161;47.348;9.648;2023-11-21T09:47:56;9.90;99.90
18073;DHT22;9161;47.348;9.648;2023-11-21T09:53:13;10.00;99.90
18073;DHT22;9161;47.348;9.648;2023-11-21T09:58:18;10.50;99.90
18073;DHT22;9161;47.348;9.648;2023-11-21T10:03:21;11.00;99.90
18073;DHT22;9161;47.348;9.648;2023-11-21T10:08:24;11.30;99.90
18073;DHT22;9161;47.348;9.648;2023-11-21T10:13:48;11.70;99.90
18073;DHT22;9161;47.348;9.648;2023-11-21T10:18:53;11.80;99.90
18073;DHT22;9161;47.348;9.648;2023-11-21T10:24:10;11.80;99.90
18073;DHT22;9161;47.348;9.648;2023-11-21T10:29:14;11.60;99.90
18073;DHT22;9161;47.348;9.648;2023-11-21T10:34:20;11.70;99.90
18073;DHT22;9161;47.348;9.648;2023-11-21T10:39:23;11.40;99.90
18073;DHT22;9161;47.348;9.648;2023-11-21T10:44:29;11.40;99.90
18073;DHT22;9161;47.348;9.648;2023-11-21T10:49:32;11.20;99.90
18073;DHT22;9161;47.348;9.648;2023-11-21T10:54:34;11.10;99.90
18073;DHT22;9161;47.348;9.648;2023-11-21T10:59:39;10.90;99.90
18073;DHT22;9161;47.348;9.648;2023-11-21T11:04:42;10.60;99.90
18073;DHT22;9161;47.348;9.648;2023-11-21T11:09:46;10.60;99.90
18073;DHT22;9161;47.348;9.648;2023-11-21T11:14:51;10.70;99.90
18073;DHT22;9161;47.348;9.648;2023-11-21T11:19:53;11.20;99.90
18073;DHT22;9161;47.348;9.648;2023-11-21T11:25:24;11.50;99.90
18073;DHT22;9161;47.348;9.648;2023-11-21T11:30:39;11.30;99.90
18073;DHT22;9161;47.348;9.648;2023-11-21T11:35:52;11.30;99.90
18073;DHT22;9161;47.348;9.648;2023-11-21T11:40:55;10.90;99.90
18073;DHT22;9161;47.348;9.648;2023-11-21T11:45:59;10.90;99.90
18073;DHT22;9161;47.348;9.648;2023-11-21T11:51:06;10.80;99.90
18073;DHT22;9161;47.348;9.648;2023-11-21T11:56:27;10.90;99.90
18073;DHT22;9161;47.348;9.648;2023-11-21T12:01:33;11.10;99.90
18073;DHT22;9161;47.348;9.648;2023-11-21T12:06:36;11.30;99.90
18073;DHT22;9161;47.348;9.648;2023-11-21T12:11:41;11.70;99.90
18073;DHT22;9161;47.348;9.648;2023-11-21T12:16:45;11.80;99.90
18073;DHT22;9161;47.348;9.648;2023-11-21T12:21:49;12.70;99.90
18073;DHT22;9161;47.348;9.648;2023-11-21T12:26:53;13.40;99.90
18073;DHT22;9161;47.348;9.648;2023-11-21T12:31:56;13.40;99.90
18073;DHT22;9161;47.348;9.648;2023-11-21T12:36:59;12.80;99.90
18073;DHT22;9161;47.348;9.648;2023-11-21T12:42:02;11.90;99.90
18073;DHT22;9161;47.348;9.648;2023-11-21T12:47:08;11.10;99.90
18073;DHT22;9161;47.348;9.648;2023-11-21T12:52:13;10.40;99.90
18073;DHT22;9161;47.348;9.648;2023-11-21T12:57:16;10.20;99.90
18073;DHT22;9161;47.348;9.648;2023-11-21T13:02:21;10.20;99.90
18073;DHT22;9161;47.348;9.648;2023-11-21T13:07:26;10.50;99.90
18073;DHT22;9161;47.348;9.648;2023-11-21T13:12:28;10.80;99.90
18073;DHT22;9161;47.348;9.648;2023-11-21T13:17:34;11.20;99.90
18073;DHT22;9161;47.348;9.648;2023-11-21T13:22:37;11.80;99.90
18073;DHT22;9161;47.348;9.648;2023-11-21T13:27:39;12.40;99.90
18073;DHT22;9161;47.348;9.648;2023-11-21T13:32:45;12.70;99.90
18073;DHT22;9161;47.348;9.648;2023-11-21T13:37:49;12.80;99.90
18073;DHT22;9161;47.348;9.648;2023-11-21T13:42:54;14.80;99.90
18073;DHT22;9161;47.348;9.648;2023-11-21T13:48:01;13.70;99.90
18073;DHT22;9161;47.348;9.648;2023-11-21T13:53:06;12.70;99.90
18073;DHT22;9161;47.348;9.648;2023-11-21T13:58:18;11.00;99.90
18073;DHT22;9161;47.348;9.648;2023-11-21T14:03:27;10.60;99.90
18073;DHT22;9161;47.348;9.648;2023-11-21T14:08:40;9.80;99.90
18073;DHT22;9161;47.348;9.648;2023-11-21T14:13:43;9.50;99.90
18073;DHT22;9161;47.348;9.648;2023-11-21T14:18:49;9.30;99.90
18073;DHT22;9161;47.348;9.648;2023-11-21T14:23:57;9.10;99.90
18073;DHT22;9161;47.348;9.648;2023-11-21T14:29:01;8.90;99.90
18073;DHT22;9161;47.348;9.648;2023-11-21T14:34:07;8.50;99.90
18073;DHT22;9161;47.348;9.648;2023-11-21T14:39:10;8.40;99.90
18073;DHT22;9161;47.348;9.648;2023-11-21T14:44:23;8.20;99.90
18073;DHT22;9161;47.348;9.648;2023-11-21T14:49:30;8.20;99.90
18073;DHT22;9161;47.348;9.648;2023-11-21T14:54:43;8.10;99.90
18073;DHT22;9161;47.348;9.648;2023-11-21T14:59:48;8.20;99.90
18073;DHT22;9161;47.348;9.648;2023-11-21T15:04:54;8.20;99.90
18073;DHT22;9161;47.348;9.648;2023-11-21T15:10:02;8.20;99.90
18073;DHT22;9161;47.348;9.648;2023-11-21T15:15:05;8.20;99.90
18073;DHT22;9161;47.348;9.648;2023-11-21T15:20:13;8.20;99.90
18073;DHT22;9161;47.348;9.648;2023-11-21T15:25:20;8.20;99.90
18073;DHT22;9161;47.348;9.648;2023-11-21T15:30:22;8.10;99.90
18073;DHT22;9161;47.348;9.648;2023-11-21T15:35:27;7.80;99.90
18073;DHT22;9161;47.348;9.648;2023-11-21T15:40:30;7.80;99.90
18073;DHT22;9161;47.348;9.648;2023-11-21T15:45:32;7.70;99.90
18073;DHT22;9161;47.348;9.648;2023-11-21T15:50:36;7.60;99.90
18073;DHT22;9161;47.348;9.648;2023-11-21T15:55:38;7.50;99.90
18073;DHT22;9161;47.348;9.648;2023-11-21T16:00:43;7.50;99.90
18073;DHT22;9161;47.348;9.648;2023-11-21T16:05:50;7.40;99.90
18073;DHT22;9161;47.348;9.648;2023-11-21T16:10:53;7.40;99.90
18073;DHT22;9161;47.348;9.648;2023-11-21T16:15:56;7.40;99.90
18073;DHT22;9161;47.348;9.648;2023-11-21T16:21:00;7.40;99.90
18073;DHT22;9161;47.348;9.648;2023-11-21T16:26:02;7.40;99.90
18073;DHT22;9161;47.348;9.648;2023-11-21T16:31:05;7.50;99.90
18073;DHT22;9161;47.348;9.648;2023-11-21T16:36:09;7.50;99.90
18073;DHT22;9161;47.348;9.648;2023-11-21T16:41:11;7.50;99.90
18073;DHT22;9161;47.348;9.648;2023-11-21T16:46:14;7.40;99.90
18073;DHT22;9161;47.348;9.648;2023-11-21T16:51:18;7.30;99.90
18073;DHT22;9161;47.348;9.648;2023-11-21T16:56:21;7.30;99.90
18073;DHT22;9161;47.348;9.648;2023-11-21T17:01:23;7.30;99.90
18073;DHT22;9161;47.348;9.648;2023-11-21T17:06:30;7.20;99.90
18073;DHT22;9161;47.348;9.648;2023-11-21T17:11:33;7.20;99.90
18073;DHT22;9161;47.348;9.648;2023-11-21T17:16:36;7.20;99.90
18073;DHT22;9161;47.348;9.648;2023-11-21T17:21:42;7.20;99.90
18073;DHT22;9161;47.348;9.648;2023-11-21T17:26:46;7.20;99.90
18073;DHT22;9161;47.348;9.648;2023-11-21T17:31:48;7.20;99.90
18073;DHT22;9161;47.348;9.648;2023-11-21T17:36:51;7.20;99.90
18073;DHT22;9161;47.348;9.648;2023-11-21T17:41:54;7.20;99.90
18073;DHT22;9161;47.348;9.648;2023-11-21T17:46:55;7.30;99.90
18073;DHT22;9161;47.348;9.648;2023-11-21T17:51:59;7.30;99.90
18073;DHT22;9161;47.348;9.648;2023-11-21T17:57:01;7.20;99.90
18073;DHT22;9161;47.348;9.648;2023-11-21T18:02:03;7.20;99.90
18073;DHT22;9161;47.348;9.648;2023-11-21T18:07:07;7.10;99.90
18073;DHT22;9161;47.348;9.648;2023-11-21T18:12:10;7.00;99.90
18073;DHT22;9161;47.348;9.648;2023-11-21T18:17:13;7.10;99.90
18073;DHT22;9161;47.348;9.648;2023-11-21T18:22:19;7.10;99.90
18073;DHT22;9161;47.348;9.648;2023-11-21T18:27:25;7.10;99.90
18073;DHT22;9161;47.348;9.648;2023-11-21T18:32:30;7.10;99.90
18073;DHT22;9161;47.348;9.648;2023-11-21T18:37:34;7.10;99.90
18073;DHT22;9161;47.348;9.648;2023-11-21T18:42:37;7.10;99.90
18073;DHT22;9161;47.348;9.648;2023-11-21T18:47:43;7.00;99.90
18073;DHT22;9161;47.348;9.648;2023-11-21T18:52:47;7.00;99.90
18073;DHT22;9161;47.348;9.648;2023-11-21T18:57:50;7.00;99.90
18073;DHT22;9161;47.348;9.648;2023-11-21T19:02:52;7.10;99.90
18073;DHT22;9161;47.348;9.648;2023-11-21T19:07:56;7.00;99.90
18073;DHT22;9161;47.348;9.648;2023-11-21T19:12:58;7.00;99.90
18073;DHT22;9161;47.348;9.648;2023-11-21T19:18:04;7.00;99.90
18073;DHT22;9161;47.348;9.648;2023-11-21T19:23:08;7.00;99.90
18073;DHT22;9161;47.348;9.648;2023-11-21T19:28:10;7.10;99.90
18073;DHT22;9161;47.348;9.648;2023-11-21T19:33:13;7.10;99.90
18073;DHT22;9161;47.348;9.648;2023-11-21T19:38:18;7.10;99.90
18073;DHT22;9161;47.348;9.648;2023-11-21T19:43:21;7.10;99.90
18073;DHT22;9161;47.348;9.648;2023-11-21T19:48:24;7.10;99.90
18073;DHT22;9161;47.348;9.648;2023-11-21T19:53:28;6.90;99.90
18073;DHT22;9161;47.348;9.648;2023-11-21T19:58:30;6.90;99.90
18073;DHT22;9161;47.348;9.648;2023-11-21T20:03:32;7.00;99.90
18073;DHT22;9161;47.348;9.648;2023-11-21T20:08:37;7.10;99.90
18073;DHT22;9161;47.348;9.648;2023-11-21T20:13:40;7.10;99.90
18073;DHT22;9161;47.348;9.648;2023-11-21T20:18:42;7.10;99.90
18073;DHT22;9161;47.348;9.648;2023-11-21T20:23:46;7.10;99.90
18073;DHT22;9161;47.348;9.648;2023-11-21T20:28:49;7.00;99.90
18073;DHT22;9161;47.348;9.648;2023-11-21T20:33:51;7.00;99.90
18073;DHT22;9161;47.348;9.648;2023-11-21T20:38:55;7.10;99.90
18073;DHT22;9161;47.348;9.648;2023-11-21T20:43:57;7.10;99.90
18073;DHT22;9161;47.348;9.648;2023-11-21T20:49:01;7.10;99.90
18073;DHT22;9161;47.348;9.648;2023-11-21T20:54:06;7.10;99.90
18073;DHT22;9161;47.348;9.648;2023-11-21T20:59:13;7.10;99.90
18073;DHT22;9161;47.348;9.648;2023-11-21T21:04:15;7.10;99.90
18073;DHT22;9161;47.348;9.648;2023-11-21T21:09:20;7.00;99.90
18073;DHT22;9161;47.348;9.648;2023-11-21T21:14:23;7.10;99.90
18073;DHT22;9161;47.348;9.648;2023-11-21T21:19:27;7.10;99.90
18073;DHT22;9161;47.348;9.648;2023-11-21T21:24:33;7.10;99.90
18073;DHT22;9161;47.348;9.648;2023-11-21T21:29:35;7.10;99.90
18073;DHT22;9161;47.348;9.648;2023-11-21T21:34:37;7.10;99.90
18073;DHT22;9161;47.348;9.648;2023-11-21T21:39:42;7.10;99.90
18073;DHT22;9161;47.348;9.648;2023-11-21T21:44:46;7.10;99.90
18073;DHT22;9161;47.348;9.648;2023-11-21T21:49:48;7.10;99.90
18073;DHT22;9161;47.348;9.648;2023-11-21T21:54:54;7.00;99.90
18073;DHT22;9161;47.348;9.648;2023-11-21T22:00:02;7.00;99.90
18073;DHT22;9161;47.348;9.648;2023-11-21T22:05:10;7.00;99.90
18073;DHT22;9161;47.348;9.648;2023-11-21T22:10:17;6.90;99.90
18073;DHT22;9161;47.348;9.648;2023-11-21T22:15:19;6.80;99.90
18073;DHT22;9161;47.348;9.648;2023-11-21T22:20:21;6.80;99.90
18073;DHT22;9161;47.348;9.648;2023-11-21T22:25:24;6.80;99.90
18073;DHT22;9161;47.348;9.648;2023-11-21T22:30:26;6.80;99.90
18073;DHT22;9161;47.348;9.648;2023-11-21T22:35:29;6.80;99.90
18073;DHT22;9161;47.348;9.648;2023-11-21T22:40:33;6.80;99.90
18073;DHT22;9161;47.348;9.648;2023-11-21T22:45:35;6.90;99.90
18073;DHT22;9161;47.348;9.648;2023-11-21T22:50:38;6.90;99.90
18073;DHT22;9161;47.348;9.648;2023-11-21T22:55:41;6.90;99.90
18073;DHT22;9161;47.348;9.648;2023-11-21T23:00:43;7.00;99.90
18073;DHT22;9161;47.348;9.648;2023-11-21T23:05:46;7.00;99.90
18073;DHT22;9161;47.348;9.648;2023-11-21T23:10:50;6.90;99.90
18073;DHT22;9161;47.348;9.648;2023-11-21T23:15:54;6.90;99.90
18073;DHT22;9161;47.348;9.648;2023-11-21T23:20:57;7.00;99.90
18073;DHT22;9161;47.348;9.648;2023-11-21T23:26:01;7.00;99.90
18073;DHT22;9161;47.348;9.648;2023-11-21T23:31:04;7.00;99.90
18073;DHT22;9161;47.348;9.648;2023-11-21T23:36:07;7.00;99.90
18073;DHT22;9161;47.348;9.648;2023-11-21T23:41:10;6.90;99.90
18073;DHT22;9161;47.348;9.648;2023-11-21T23:46:13;7.00;99.90
18073;DHT22;9161;47.348;9.648;2023-11-21T23:51:15;6.90;99.90
18073;DHT22;9161;47.348;9.648;2023-11-21T23:56:19;6.90;99.90
